createdAt,value
2018-03-23T00:01:08.761Z,15.83
2018-03-23T00:03:38.091Z,14.17
2018-03-23T00:06:08.676Z,12.60
2018-03-23T00:08:38.138Z,17.77
2018-03-23T00:11:07.522Z,17.60
2018-03-23T00:13:37.047Z,19.00
2018-03-23T00:16:06.610Z,10.40
2018-03-23T00:18:37.561Z,15.20
2018-03-23T00:21:08.420Z,10.17
2018-03-23T00:23:39.942Z,11.73
2018-03-23T00:26:15.347Z,13.53
2018-03-23T00:28:45.698Z,12.17
2018-03-23T00:31:18.206Z,14.07
2018-03-23T00:33:53.978Z,11.90
2018-03-23T00:39:04.586Z,9.50
2018-03-23T00:41:34.264Z,11.40
2018-03-23T00:44:04.265Z,10.40
2018-03-23T00:46:34.825Z,10.50
2018-03-23T00:49:04.290Z,11.60
2018-03-23T00:51:34.500Z,15.97
2018-03-23T00:54:06.457Z,14.17
2018-03-23T00:56:36.035Z,12.10
2018-03-23T00:59:06.553Z,20.53
2018-03-23T01:01:38.972Z,19.53
2018-03-23T01:04:09.669Z,12.07
2018-03-23T01:06:39.220Z,21.90
2018-03-23T01:14:38.121Z,13.33
2018-03-23T01:17:10.750Z,18.43
2018-03-23T01:19:45.646Z,16.73
2018-03-23T01:22:49.361Z,11.97
2018-03-23T01:25:22.679Z,15.40
2018-03-23T01:27:53.728Z,16.13
2018-03-23T01:31:11.035Z,23.77
2018-03-23T01:33:41.024Z,16.10
2018-03-23T01:36:11.398Z,13.63
2018-03-23T01:38:40.750Z,19.63
2018-03-23T01:41:12.194Z,17.10
2018-03-23T01:43:41.526Z,23.27
2018-03-23T01:46:14.359Z,17.93
2018-03-23T01:49:32.599Z,16.73
2018-03-23T01:52:06.922Z,18.47
2018-03-23T01:54:36.484Z,25.40
2018-03-23T02:00:33.067Z,19.60
2018-03-23T02:03:10.294Z,23.63
2018-03-23T02:11:43.814Z,16.30
2018-03-23T02:14:14.134Z,19.87
2018-03-23T02:16:44.284Z,23.80
2018-03-23T02:19:13.704Z,19.03
2018-03-23T02:25:07.477Z,15.13
2018-03-23T02:27:42.374Z,15.30
2018-03-23T02:30:12.483Z,17.10
2018-03-23T02:33:00.932Z,14.60
2018-03-23T02:35:30.815Z,18.80
2018-03-23T02:38:00.916Z,20.03
2018-03-23T02:40:31.022Z,13.40
2018-03-23T02:43:00.694Z,24.10
2018-03-23T02:45:30.364Z,17.73
2018-03-23T02:48:00.070Z,17.43
2018-03-23T02:50:34.212Z,18.83
2018-03-23T02:53:21.202Z,17.03
2018-03-23T02:58:35.980Z,23.90
2018-03-23T03:01:06.154Z,14.13
2018-03-23T03:03:36.350Z,23.77
2018-03-23T03:06:06.046Z,25.37
2018-03-23T03:08:36.758Z,20.47
2018-03-23T03:11:06.622Z,14.00
2018-03-23T03:13:36.401Z,19.50
2018-03-23T03:16:06.310Z,15.40
2018-03-23T03:18:36.765Z,16.20
2018-03-23T03:21:07.808Z,16.17
2018-03-23T03:23:37.478Z,13.33
2018-03-23T03:26:08.035Z,12.17
2018-03-23T03:28:38.597Z,19.53
2018-03-23T03:31:09.023Z,18.93
2018-03-23T03:33:38.688Z,19.27
2018-03-23T03:36:09.108Z,17.70
2018-03-23T03:38:40.480Z,16.07
2018-03-23T03:41:10.234Z,11.87
2018-03-23T03:43:40.073Z,15.03
2018-03-23T03:46:09.725Z,15.93
2018-03-23T03:48:39.301Z,14.50
2018-03-23T03:51:09.917Z,17.67
2018-03-23T03:53:39.762Z,17.50
2018-03-23T03:56:10.425Z,14.03
2018-03-23T03:58:40.262Z,13.13
2018-03-23T04:01:10.439Z,10.20
2018-03-23T04:03:40.120Z,14.00
2018-03-23T04:06:10.307Z,14.20
2018-03-23T04:08:39.916Z,9.23
2018-03-23T04:11:10.426Z,13.07
2018-03-23T04:13:44.126Z,13.07
2018-03-23T04:16:15.114Z,12.80
2018-03-23T04:18:48.096Z,13.20
2018-03-23T04:21:17.767Z,9.30
2018-03-23T04:23:54.393Z,13.27
2018-03-23T04:26:27.298Z,13.00
2018-03-23T04:29:03.576Z,10.13
2018-03-23T04:31:34.621Z,17.57
2018-03-23T04:34:04.250Z,9.57
2018-03-23T04:36:33.810Z,10.70
2018-03-23T04:39:03.499Z,13.53
2018-03-23T04:41:33.952Z,13.00
2018-03-23T04:44:03.687Z,11.83
2018-03-23T04:46:33.240Z,10.67
2018-03-23T04:49:06.515Z,8.37
2018-03-23T04:51:36.197Z,8.53
2018-03-23T04:54:05.820Z,10.13
2018-03-23T04:56:39.827Z,16.63
2018-03-23T04:59:09.754Z,6.90
2018-03-23T05:01:39.715Z,10.27
2018-03-23T05:04:09.743Z,11.90
2018-03-23T05:06:43.017Z,9.47
2018-03-23T05:09:13.487Z,9.90
2018-03-23T05:11:44.940Z,12.67
2018-03-23T05:14:16.598Z,11.20
2018-03-23T05:16:46.286Z,9.27
2018-03-23T05:19:15.858Z,12.90
2018-03-23T05:21:45.450Z,12.63
2018-03-23T05:24:15.204Z,9.50
2018-03-23T05:26:44.758Z,8.37
2018-03-23T05:29:14.309Z,7.13
2018-03-23T05:31:44.242Z,11.17
2018-03-23T05:34:13.852Z,9.97
2018-03-23T05:36:43.593Z,18.27
2018-03-23T05:39:13.231Z,11.27
2018-03-23T05:41:43.666Z,14.07
2018-03-23T05:44:13.592Z,14.97
2018-03-23T05:46:43.163Z,8.03
2018-03-23T05:49:12.719Z,9.33
2018-03-23T05:51:42.368Z,8.87
2018-03-23T05:54:11.953Z,12.80
2018-03-23T05:56:41.551Z,11.07
2018-03-23T05:59:13.936Z,12.77
2018-03-23T06:01:46.769Z,7.80
2018-03-23T06:04:20.686Z,13.77
2018-03-23T06:06:51.060Z,9.97
2018-03-23T06:09:20.667Z,11.90
2018-03-23T06:11:50.210Z,12.53
2018-03-23T06:14:20.037Z,10.93
2018-03-23T06:16:49.910Z,21.73
2018-03-23T06:19:20.206Z,24.17
2018-03-23T06:21:49.817Z,34.50
2018-03-23T06:24:19.569Z,30.13
2018-03-23T06:26:49.331Z,29.60
2018-03-23T06:29:18.954Z,29.53
2018-03-23T06:31:50.159Z,26.03
2018-03-23T06:34:19.765Z,28.07
2018-03-23T06:36:49.366Z,26.70
2018-03-23T06:39:19.069Z,19.80
2018-03-23T06:41:48.804Z,15.97
2018-03-23T06:44:18.499Z,15.77
2018-03-23T06:46:48.311Z,16.87
2018-03-23T06:49:19.292Z,15.10
2018-03-23T06:51:51.671Z,16.77
2018-03-23T06:54:23.004Z,18.00
2018-03-23T06:56:52.777Z,17.07
2018-03-23T07:02:53.477Z,22.10
2018-03-23T07:05:27.275Z,16.17
2018-03-23T07:07:56.950Z,15.77
2018-03-23T07:10:27.295Z,18.93
2018-03-23T07:12:57.076Z,17.53
2018-03-23T07:15:27.368Z,15.63
2018-03-23T07:17:59.106Z,19.37
2018-03-23T07:20:32.916Z,13.20
2018-03-23T07:26:25.499Z,27.17
2018-03-23T07:28:55.425Z,24.40
2018-03-23T07:31:25.146Z,26.80
2018-03-23T07:33:54.762Z,25.27
2018-03-23T07:36:24.801Z,34.80
2018-03-23T07:38:54.702Z,33.50
2018-03-23T07:41:24.561Z,38.97
2018-03-23T07:43:54.215Z,32.30
2018-03-23T07:46:24.587Z,31.83
2018-03-23T07:48:54.165Z,24.83
2018-03-23T07:51:24.520Z,38.80
2018-03-23T07:53:54.184Z,36.50
2018-03-23T07:56:24.734Z,41.63
2018-03-23T07:58:55.324Z,37.97
2018-03-23T08:01:32.693Z,29.93
2018-03-23T08:04:02.823Z,33.10
2018-03-23T08:06:32.434Z,33.57
2018-03-23T08:09:02.084Z,36.60
2018-03-23T08:11:33.037Z,41.73
2018-03-23T08:14:03.650Z,36.43
2018-03-23T08:16:33.450Z,36.63
2018-03-23T08:26:24.735Z,42.40
2018-03-23T08:28:54.454Z,34.53
2018-03-23T08:31:23.887Z,33.40
2018-03-23T08:33:54.988Z,35.30
2018-03-23T08:36:24.845Z,30.83
2018-03-23T08:42:18.742Z,24.50
2018-03-23T08:44:48.879Z,22.50
2018-03-23T08:47:18.527Z,19.03
2018-03-23T08:49:47.875Z,19.00
2018-03-23T08:52:17.299Z,25.87
2018-03-23T08:54:46.714Z,27.93
2018-03-23T08:57:16.142Z,25.40
2018-03-23T08:59:45.550Z,30.67
2018-03-23T09:02:15.062Z,38.20
2018-03-23T09:04:44.407Z,35.90
2018-03-23T09:07:13.884Z,37.60
2018-03-23T09:09:43.386Z,39.63
2018-03-23T09:12:12.857Z,41.30
2018-03-23T09:14:42.183Z,51.50
2018-03-23T09:17:11.722Z,53.87
2018-03-23T09:19:41.088Z,47.23
2018-03-23T09:25:32.919Z,40.63
2018-03-23T09:28:02.586Z,43.53
2018-03-23T09:30:32.037Z,41.17
2018-03-23T09:33:01.715Z,32.93
2018-03-23T09:35:31.155Z,39.90
2018-03-23T09:38:00.698Z,43.53
2018-03-23T09:40:30.212Z,40.70
2018-03-23T09:43:00.592Z,47.37
2018-03-23T09:45:30.088Z,36.33
2018-03-23T09:48:00.451Z,40.17
2018-03-23T09:50:29.982Z,36.40
2018-03-23T09:52:59.542Z,32.17
2018-03-23T09:55:29.846Z,35.87
2018-03-23T09:57:59.391Z,38.40
2018-03-23T10:00:29.425Z,32.47
2018-03-23T10:02:59.080Z,33.60
2018-03-23T10:05:28.601Z,31.13
2018-03-23T10:07:58.154Z,41.77
2018-03-23T10:10:28.466Z,46.23
2018-03-23T10:13:01.409Z,39.20
2018-03-23T10:15:31.879Z,27.33
2018-03-23T10:18:02.507Z,30.03
2018-03-23T10:20:32.248Z,34.50
2018-03-23T10:23:01.827Z,30.47
2018-03-23T10:25:31.333Z,39.80
2018-03-23T10:28:14.961Z,33.07
2018-03-23T10:30:48.581Z,39.20
2018-03-23T10:33:19.401Z,35.10
2018-03-23T10:35:49.587Z,30.93
2018-03-23T10:38:19.957Z,37.97
2018-03-23T10:40:52.775Z,38.30
2018-03-23T10:46:02.250Z,37.37
2018-03-23T10:48:33.937Z,37.00
2018-03-23T10:51:04.573Z,30.90
2018-03-23T10:53:34.205Z,35.57
2018-03-23T10:56:03.798Z,40.67
2018-03-23T10:58:34.149Z,37.70
2018-03-23T11:01:09.889Z,40.57
2018-03-23T11:03:39.504Z,40.07
2018-03-23T11:06:09.764Z,43.80
2018-03-23T11:08:40.107Z,41.67
2018-03-23T11:11:09.667Z,46.57
2018-03-23T11:13:39.864Z,52.00
2018-03-23T11:16:09.511Z,47.57
2018-03-23T11:18:39.601Z,47.07
2018-03-23T11:21:09.365Z,53.73
2018-03-23T11:23:39.731Z,44.60
2018-03-23T11:26:09.270Z,43.63
2018-03-23T11:28:41.274Z,45.97
2018-03-23T11:31:12.497Z,42.73
2018-03-23T11:33:43.003Z,39.53
2018-03-23T11:36:12.613Z,49.77
2018-03-23T11:38:42.148Z,53.10
2018-03-23T11:41:15.433Z,41.90
2018-03-23T11:43:46.604Z,44.50
2018-03-23T11:46:16.193Z,53.03
2018-03-23T11:48:45.745Z,45.60
2018-03-23T11:51:17.129Z,42.27
2018-03-23T11:53:46.952Z,48.10
2018-03-23T11:56:16.378Z,43.77
2018-03-23T11:58:46.406Z,35.77
2018-03-23T12:01:18.208Z,40.00
2018-03-23T12:03:53.481Z,34.10
2018-03-23T12:06:22.994Z,31.50
2018-03-23T12:08:53.316Z,37.93
2018-03-23T12:11:24.008Z,31.10
2018-03-23T12:13:58.225Z,25.63
2018-03-23T12:16:29.648Z,29.20
2018-03-23T12:18:59.087Z,23.73
2018-03-23T12:24:04.668Z,24.33
2018-03-23T12:26:36.181Z,26.53
2018-03-23T12:29:07.713Z,28.20
2018-03-23T12:31:37.762Z,27.23
2018-03-23T12:34:07.557Z,22.70
2018-03-23T12:36:40.062Z,20.37
2018-03-23T12:39:09.499Z,25.33
2018-03-23T12:41:39.507Z,22.77
2018-03-23T12:44:12.824Z,20.30
2018-03-23T12:46:44.023Z,27.30
2018-03-23T12:49:13.624Z,24.50
2018-03-23T12:51:43.196Z,23.57
2018-03-23T12:56:46.313Z,27.93
2018-03-23T12:59:15.803Z,28.03
2018-03-23T13:01:51.977Z,25.60
2018-03-23T13:07:46.512Z,25.47
2018-03-23T13:10:17.281Z,25.20
2018-03-23T13:12:48.772Z,31.60
2018-03-23T13:15:18.359Z,30.17
2018-03-23T13:17:48.216Z,28.73
2018-03-23T13:20:18.217Z,34.27
2018-03-23T13:22:47.894Z,49.90
2018-03-23T13:25:17.593Z,38.87
2018-03-23T13:27:47.132Z,40.13
2018-03-23T13:30:18.380Z,24.03
2018-03-23T13:32:49.028Z,35.60
2018-03-23T13:35:18.714Z,24.43
2018-03-23T13:37:51.247Z,20.07
2018-03-23T13:40:25.141Z,22.50
2018-03-23T13:42:54.697Z,22.30
2018-03-23T13:45:25.198Z,35.13
2018-03-23T13:47:54.887Z,15.63
2018-03-23T13:50:27.403Z,15.47
2018-03-23T13:53:03.108Z,22.20
2018-03-23T13:55:33.302Z,60.17
2018-03-23T13:58:06.631Z,29.90
2018-03-23T14:00:42.489Z,27.07
2018-03-23T14:03:12.093Z,53.83
2018-03-23T14:05:43.040Z,47.73
2018-03-23T14:08:13.070Z,26.00
2018-03-23T14:10:42.791Z,38.63
2018-03-23T14:13:12.863Z,41.30
2018-03-23T14:15:42.494Z,86.70
2018-03-23T14:18:12.125Z,47.27
2018-03-23T14:20:42.641Z,33.80
2018-03-23T14:23:12.355Z,24.27
2018-03-23T14:25:42.201Z,33.47
2018-03-23T14:28:12.183Z,18.17
2018-03-23T14:30:41.806Z,19.97
2018-03-23T14:36:46.830Z,28.90
2018-03-23T14:39:16.435Z,44.13
2018-03-23T14:41:45.929Z,53.07
2018-03-23T14:44:15.877Z,23.60
2018-03-23T14:50:20.521Z,16.93
2018-03-23T14:52:50.324Z,18.53
2018-03-23T14:55:19.824Z,27.27
2018-03-23T14:57:50.111Z,14.37
2018-03-23T15:00:19.425Z,22.73
2018-03-23T15:02:48.798Z,23.07
2018-03-23T15:05:18.105Z,31.73
2018-03-23T15:08:18.279Z,12.17
2018-03-23T15:10:47.769Z,9.50
2018-03-23T15:13:17.490Z,17.80
2018-03-23T15:15:48.761Z,9.30
2018-03-23T15:18:18.534Z,10.70
2018-03-23T15:20:48.020Z,8.90
2018-03-23T15:23:17.537Z,8.60
2018-03-23T15:25:47.241Z,8.07
2018-03-23T15:28:17.609Z,12.53
2018-03-23T15:30:47.473Z,22.87
2018-03-23T15:33:18.145Z,13.00
2018-03-23T15:35:48.584Z,9.00
2018-03-23T15:38:18.501Z,13.30
2018-03-23T15:44:10.378Z,20.13
2018-03-23T15:46:40.530Z,14.77
2018-03-23T15:49:10.092Z,22.63
2018-03-23T15:51:39.453Z,13.77
2018-03-23T15:54:09.048Z,15.33
2018-03-23T15:56:39.198Z,11.90
2018-03-23T15:59:09.493Z,14.27
2018-03-23T16:01:39.007Z,14.50
2018-03-23T16:04:08.308Z,15.23
2018-03-23T16:06:37.644Z,11.93
2018-03-23T16:09:07.167Z,9.43
2018-03-23T16:11:37.409Z,10.93
2018-03-23T16:14:07.283Z,8.17
2018-03-23T16:16:36.695Z,10.43
2018-03-23T16:19:06.940Z,17.23
2018-03-23T16:21:36.324Z,14.93
2018-03-23T16:24:05.780Z,16.70
2018-03-23T16:26:35.283Z,14.97
2018-03-23T16:29:04.708Z,12.60
2018-03-23T16:31:37.920Z,10.23
2018-03-23T16:34:08.179Z,13.13
2018-03-23T16:36:37.535Z,13.00
2018-03-23T16:39:08.115Z,11.00
2018-03-23T16:41:37.526Z,12.20
2018-03-23T16:44:06.974Z,11.23
2018-03-23T16:46:37.580Z,16.90
2018-03-23T16:49:06.934Z,17.33
2018-03-23T16:51:36.317Z,13.90
2018-03-23T16:54:05.892Z,20.87
2018-03-23T16:56:36.950Z,9.63
2018-03-23T16:59:07.226Z,13.63
2018-03-23T17:01:37.505Z,20.53
2018-03-23T17:04:08.284Z,10.97
2018-03-23T17:06:37.962Z,21.00
2018-03-23T17:09:07.337Z,18.70
2018-03-23T17:11:37.263Z,13.80
2018-03-23T17:14:06.635Z,12.77
2018-03-23T17:16:59.671Z,11.10
2018-03-23T17:19:29.233Z,9.10
2018-03-23T17:21:59.149Z,6.77
2018-03-23T17:24:30.457Z,12.40
2018-03-23T17:29:41.443Z,8.87
2018-03-23T17:32:11.710Z,16.53
2018-03-23T17:34:41.250Z,8.73
2018-03-23T17:37:11.609Z,8.50
2018-03-23T17:39:41.308Z,10.07
2018-03-23T17:42:11.030Z,10.80
2018-03-23T17:48:14.858Z,19.80
2018-03-23T17:50:49.201Z,11.33
2018-03-23T17:53:21.879Z,11.37
2018-03-23T17:55:54.734Z,9.90
2018-03-23T17:58:24.829Z,9.57
2018-03-23T18:00:54.906Z,11.40
2018-03-23T18:03:24.476Z,10.80
2018-03-23T18:05:54.733Z,10.90
2018-03-23T18:08:24.443Z,13.37
2018-03-23T18:10:53.856Z,21.70
2018-03-23T18:13:25.528Z,15.47
2018-03-23T18:16:02.013Z,11.17
2018-03-23T18:18:32.472Z,12.47
2018-03-23T18:21:01.842Z,9.60
2018-03-23T18:23:34.326Z,12.50
2018-03-23T18:26:04.069Z,14.93
2018-03-23T18:28:34.245Z,12.63
2018-03-23T18:31:06.853Z,8.77
2018-03-23T18:36:11.276Z,12.40
2018-03-23T18:38:41.377Z,12.73
2018-03-23T18:41:11.812Z,13.17
2018-03-23T18:43:48.008Z,8.37
2018-03-23T18:46:17.529Z,10.47
2018-03-23T18:48:47.549Z,21.30
2018-03-23T18:51:17.855Z,16.67
2018-03-23T18:53:47.081Z,13.27
2018-03-23T18:56:18.211Z,16.57
2018-03-23T18:58:47.541Z,13.13
2018-03-23T19:01:18.944Z,12.60
2018-03-23T19:06:27.427Z,12.30
2018-03-23T19:08:58.052Z,16.80
2018-03-23T19:11:32.340Z,15.07
2018-03-23T19:17:23.217Z,18.50
2018-03-23T19:25:05.162Z,12.23
2018-03-23T19:27:34.742Z,25.70
2018-03-23T19:30:05.506Z,19.17
2018-03-23T19:32:37.855Z,13.90
2018-03-23T19:38:29.129Z,18.10
2018-03-23T19:40:59.140Z,14.73
2018-03-23T19:43:29.389Z,7.60
2018-03-23T19:45:59.681Z,9.77
2018-03-23T19:48:37.905Z,7.97
2018-03-23T19:51:08.899Z,7.40
2018-03-23T19:53:41.542Z,8.23
2018-03-23T19:56:15.853Z,10.20
2018-03-23T19:58:46.710Z,8.80
2018-03-23T20:01:18.904Z,14.33
2018-03-23T20:03:50.441Z,11.53
2018-03-23T20:06:22.681Z,9.63
2018-03-23T20:09:02.900Z,7.83
2018-03-23T20:14:53.210Z,25.70
2018-03-23T20:17:31.830Z,10.67
2018-03-23T20:22:56.993Z,8.30
2018-03-23T20:25:31.875Z,9.57
2018-03-23T20:28:06.711Z,13.73
2018-03-23T20:30:37.547Z,8.37
2018-03-23T20:33:08.212Z,9.63
2018-03-23T20:35:39.112Z,11.17
2018-03-23T20:38:08.706Z,14.87
2018-03-23T20:40:46.843Z,14.80
2018-03-23T20:43:16.269Z,11.53
2018-03-23T20:45:45.734Z,6.47
2018-03-23T20:48:15.123Z,13.30
2018-03-23T20:50:48.247Z,15.30
2018-03-23T20:53:18.022Z,9.60
2018-03-23T20:55:51.222Z,11.73
2018-03-23T20:58:26.255Z,11.30
2018-03-23T21:00:56.831Z,10.20
2018-03-23T21:03:26.811Z,10.07
2018-03-23T21:05:58.462Z,7.20
2018-03-23T21:08:30.973Z,8.07
2018-03-23T21:11:05.895Z,10.20
2018-03-23T21:13:45.126Z,11.43
2018-03-23T21:16:15.561Z,9.77
2018-03-23T21:18:46.145Z,19.07
2018-03-23T21:21:16.078Z,11.53
2018-03-23T21:23:49.627Z,13.17
2018-03-23T21:26:19.576Z,10.77
2018-03-23T21:28:49.688Z,10.77
2018-03-23T21:31:21.144Z,9.47
2018-03-23T21:33:54.388Z,11.90
2018-03-23T21:36:25.105Z,11.63
2018-03-23T21:41:44.202Z,15.87
2018-03-23T21:44:15.855Z,10.13
2018-03-23T21:46:45.806Z,7.53
2018-03-23T21:49:20.506Z,15.33
2018-03-23T21:51:53.354Z,14.57
2018-03-23T21:54:23.280Z,9.13
2018-03-23T21:56:59.566Z,11.50
2018-03-23T21:59:30.918Z,12.17
2018-03-23T22:02:04.789Z,12.17
2018-03-23T22:05:02.495Z,8.30
2018-03-23T22:07:38.163Z,7.13
2018-03-23T22:13:32.751Z,13.63
2018-03-23T22:18:55.801Z,9.57
2018-03-23T22:21:27.820Z,7.73
2018-03-23T22:24:02.692Z,7.33
2018-03-23T22:30:15.690Z,6.27
2018-03-23T22:32:51.567Z,11.00
2018-03-23T22:35:22.124Z,10.37
2018-03-23T22:37:52.969Z,12.60
2018-03-23T22:40:22.674Z,5.30
2018-03-23T22:42:53.524Z,11.00
2018-03-23T22:45:23.938Z,15.77
2018-03-23T22:47:53.711Z,14.20
2018-03-23T22:50:23.312Z,13.90
2018-03-23T22:52:55.394Z,18.53
2018-03-23T22:55:25.888Z,8.63
2018-03-23T22:57:56.115Z,6.80
2018-03-23T23:00:26.162Z,10.37
2018-03-23T23:06:19.429Z,9.33
2018-03-23T23:08:48.793Z,6.27
2018-03-23T23:11:19.916Z,13.40
2018-03-23T23:13:49.548Z,8.27
2018-03-23T23:16:20.727Z,10.90
2018-03-23T23:18:52.180Z,9.40
2018-03-23T23:21:23.855Z,14.40
2018-03-23T23:23:58.202Z,13.43
2018-03-23T23:26:27.722Z,11.20
2018-03-23T23:28:59.478Z,12.40
2018-03-23T23:31:29.372Z,8.20
2018-03-23T23:34:05.524Z,10.33
2018-03-23T23:36:36.423Z,13.67
2018-03-23T23:39:06.462Z,13.63
2018-03-23T23:44:21.012Z,13.87
2018-03-23T23:46:50.580Z,13.23
2018-03-23T23:49:29.551Z,15.70
2018-03-23T23:51:59.224Z,12.87
2018-03-23T23:54:28.595Z,15.13
2018-03-23T23:56:58.150Z,9.70
2018-03-23T23:59:27.789Z,14.03
